SBOSBO DWH / KDWH
Speedbird OnlineSpeedbird Online DWH / KDWH

David Wayne Hooks Memorial Airport
13:22 24.1°C

Location Houston, United States
Latitude: 30.0618000031
Longitude: -95.55280303960001
Local Time 13:22 on 23 Feb 2024
UTC -6 hours (America/Chicago)
Currency £1 equals USD 1.27
METAR KDWH 231853Z 35013G23KT 10SM CLR 24/03 A3003 RMK AO2 SLP167 T02390033
TAF
Weather As Of 23 Feb 2024 13:22
Description Clear sky
Wind 24 km/h from North (350°)
Cloud Cover 0%
Precipitation Rain: none, Snow: none
Sunrise 06:55
Sunset 18:16
Web Airport Website | Wikipedia
Codes IATA: DWH
ICAO: KDWH
Altitude 46 Meter / 152 Feet
Distance 7,805 KM / 4,850 Miles
from London.
Runways
RunwayLength (m)Surface
17L1215Asphalt
17R2136Asphalt
17W771WATER
35L2136Asphalt
35R1215Asphalt
35W771WATER
Radio
TypeDescriptionFrequency
A/DHOUSTON APP/DEP119.7
ATISATIS124.95
CLDCLNC DEL119.45
CTAFCTAF118.4
GNDGND121.8
TWRTWR118.4
UNICUNICOM122.95
Live ATC



Support Speedbird Online

© 2017-2024 Speedbird Online